sensor_id;sensor_type;location;lat;lon;timestamp;pressure;altitude;pressure_sealevel;temperature;humidity
39793;BME280;26080;42.264;24.536;2023-12-28T00:01:46;100421.34;;;2.17;100.00
39793;BME280;26080;42.264;24.536;2023-12-28T00:04:11;100422.25;;;2.22;100.00
39793;BME280;26080;42.264;24.536;2023-12-28T00:06:37;100429.97;;;2.18;100.00
39793;BME280;26080;42.264;24.536;2023-12-28T00:09:02;100394.56;;;1.97;100.00
39793;BME280;26080;42.264;24.536;2023-12-28T00:11:28;100404.06;;;2.02;100.00
39793;BME280;26080;42.264;24.536;2023-12-28T00:13:53;100432.53;;;2.18;100.00
39793;BME280;26080;42.264;24.536;2023-12-28T00:16:19;100434.25;;;2.06;100.00
39793;BME280;26080;42.264;24.536;2023-12-28T00:18:44;100433.38;;;2.11;100.00
39793;BME280;26080;42.264;24.536;2023-12-28T00:21:09;100433.44;;;2.23;100.00
39793;BME280;26080;42.264;24.536;2023-12-28T00:23:35;100447.25;;;2.31;100.00
39793;BME280;26080;42.264;24.536;2023-12-28T00:26:00;100446.38;;;2.26;100.00
39793;BME280;26080;42.264;24.536;2023-12-28T00:28:26;100452.38;;;2.19;100.00
39793;BME280;26080;42.264;24.536;2023-12-28T00:30:51;100446.38;;;2.27;100.00
39793;BME280;26080;42.264;24.536;2023-12-28T00:33:16;100448.91;;;2.17;100.00
39793;BME280;26080;42.264;24.536;2023-12-28T00:35:42;100446.31;;;2.17;100.00
39793;BME280;26080;42.264;24.536;2023-12-28T00:38:07;100448.91;;;2.18;100.00
39793;BME280;26080;42.264;24.536;2023-12-28T00:40:33;100463.63;;;2.31;100.00
39793;BME280;26080;42.264;24.536;2023-12-28T00:42:58;100456.72;;;2.26;100.00
39793;BME280;26080;42.264;24.536;2023-12-28T00:45:23;100436.78;;;2.05;100.00
39793;BME280;26080;42.264;24.536;2023-12-28T00:47:49;100469.69;;;2.35;100.00
39793;BME280;26080;42.264;24.536;2023-12-28T00:50:16;100475.66;;;2.22;100.00
39793;BME280;26080;42.264;24.536;2023-12-28T00:52:42;100477.34;;;2.17;100.00
39793;BME280;26080;42.264;24.536;2023-12-28T00:55:07;100473.03;;;2.16;100.00
39793;BME280;26080;42.264;24.536;2023-12-28T00:57:33;100479.91;;;2.14;100.00
39793;BME280;26080;42.264;24.536;2023-12-28T00:59:59;100476.47;;;2.08;100.00
39793;BME280;26080;42.264;24.536;2023-12-28T01:02:25;100482.56;;;2.23;100.00
39793;BME280;26080;42.264;24.536;2023-12-28T01:04:50;100488.53;;;2.10;100.00
39793;BME280;26080;42.264;24.536;2023-12-28T01:07:16;100482.41;;;1.97;100.00
39793;BME280;26080;42.264;24.536;2023-12-28T01:09:41;100484.91;;;1.86;100.00
39793;BME280;26080;42.264;24.536;2023-12-28T01:12:07;100469.41;;;1.86;100.00
39793;BME280;26080;42.264;24.536;2023-12-28T01:14:32;100488.34;;;1.81;100.00
39793;BME280;26080;42.264;24.536;2023-12-28T01:16:58;100491.69;;;1.70;100.00
39793;BME280;26080;42.264;24.536;2023-12-28T01:19:24;100481.25;;;1.57;100.00
39793;BME280;26080;42.264;24.536;2023-12-28T01:21:50;100453.50;;;1.31;100.00
39793;BME280;26080;42.264;24.536;2023-12-28T01:24:15;100488.88;;;1.41;100.00
39793;BME280;26080;42.264;24.536;2023-12-28T01:26:41;100485.41;;;1.38;100.00
39793;BME280;26080;42.264;24.536;2023-12-28T01:29:06;100489.59;;;1.25;100.00
39793;BME280;26080;42.264;24.536;2023-12-28T01:31:32;100485.41;;;1.38;100.00
39793;BME280;26080;42.264;24.536;2023-12-28T01:33:57;100493.03;;;1.24;100.00
39793;BME280;26080;42.264;24.536;2023-12-28T01:36:23;100494.63;;;1.13;100.00
39793;BME280;26080;42.264;24.536;2023-12-28T01:38:48;100500.78;;;1.24;100.00
39793;BME280;26080;42.264;24.536;2023-12-28T01:41:14;100500.69;;;1.18;100.00
39793;BME280;26080;42.264;24.536;2023-12-28T01:43:41;100488.56;;;1.09;100.00
39793;BME280;26080;42.264;24.536;2023-12-28T01:46:10;100494.63;;;1.10;100.00
39793;BME280;26080;42.264;24.536;2023-12-28T01:48:37;100492.84;;;1.06;100.00
39793;BME280;26080;42.264;24.536;2023-12-28T01:51:03;100493.66;;;1.00;100.00
39793;BME280;26080;42.264;24.536;2023-12-28T01:53:29;100483.31;;;0.97;100.00
39793;BME280;26080;42.264;24.536;2023-12-28T01:55:55;100484.06;;;0.88;100.00
39793;BME280;26080;42.264;24.536;2023-12-28T01:58:21;100478.78;;;0.78;100.00
39793;BME280;26080;42.264;24.536;2023-12-28T02:00:46;100477.03;;;0.74;100.00
39793;BME280;26080;42.264;24.536;2023-12-28T02:03:12;100473.63;;;0.76;100.00
39793;BME280;26080;42.264;24.536;2023-12-28T02:05:38;100477.94;;;0.79;100.00
39793;BME280;26080;42.264;24.536;2023-12-28T02:08:04;100482.25;;;0.81;100.00
39793;BME280;26080;42.264;24.536;2023-12-28T02:10:30;100482.31;;;0.86;100.00
39793;BME280;26080;42.264;24.536;2023-12-28T02:12:55;100485.78;;;0.86;100.00
39793;BME280;26080;42.264;24.536;2023-12-28T02:15:21;100482.25;;;0.80;100.00
39793;BME280;26080;42.264;24.536;2023-12-28T02:17:53;100481.38;;;0.78;100.00
39793;BME280;26080;42.264;24.536;2023-12-28T02:20:21;100447.59;;;0.55;100.00
39793;BME280;26080;42.264;24.536;2023-12-28T02:22:46;100489.94;;;0.74;100.00
39793;BME280;26080;42.264;24.536;2023-12-28T02:25:12;100499.44;;;0.79;100.00
39793;BME280;26080;42.264;24.536;2023-12-28T02:27:40;100506.22;;;0.70;100.00
39793;BME280;26080;42.264;24.536;2023-12-28T02:30:07;100505.19;;;0.55;100.00
39793;BME280;26080;42.264;24.536;2023-12-28T02:35:36;100515.38;;;0.46;100.00
39793;BME280;26080;42.264;24.536;2023-12-28T02:38:05;100505.88;;;0.42;100.00
39793;BME280;26080;42.264;24.536;2023-12-28T02:40:36;100501.53;;;0.40;100.00
39793;BME280;26080;42.264;24.536;2023-12-28T02:43:05;100505.75;;;0.35;100.00
39793;BME280;26080;42.264;24.536;2023-12-28T02:45:30;100506.59;;;0.32;100.00
39793;BME280;26080;42.264;24.536;2023-12-28T02:47:56;100505.66;;;0.27;100.00
39793;BME280;26080;42.264;24.536;2023-12-28T02:50:21;100505.59;;;0.22;100.00
39793;BME280;26080;42.264;24.536;2023-12-28T02:52:46;100491.91;;;0.26;100.00
39793;BME280;26080;42.264;24.536;2023-12-28T02:55:12;100504.88;;;0.31;100.00
39793;BME280;26080;42.264;24.536;2023-12-28T02:57:37;100502.31;;;0.34;100.00
39793;BME280;26080;42.264;24.536;2023-12-28T03:00:07;100501.53;;;0.40;100.00
39793;BME280;26080;42.264;24.536;2023-12-28T03:02:38;100505.81;;;0.41;100.00
39793;BME280;26080;42.264;24.536;2023-12-28T03:05:04;100508.47;;;0.44;100.00
39793;BME280;26080;42.264;24.536;2023-12-28T03:07:31;100506.84;;;0.52;100.00
39793;BME280;26080;42.264;24.536;2023-12-28T03:09:56;100501.78;;;0.58;100.00
39793;BME280;26080;42.264;24.536;2023-12-28T03:12:22;100503.53;;;0.64;100.00
39793;BME280;26080;42.264;24.536;2023-12-28T03:14:47;100497.50;;;0.62;100.00
39793;BME280;26080;42.264;24.536;2023-12-28T03:17:13;100501.00;;;0.68;100.00
39793;BME280;26080;42.264;24.536;2023-12-28T03:19:39;100488.06;;;0.61;100.00
39793;BME280;26080;42.264;24.536;2023-12-28T03:22:04;100491.47;;;0.58;100.00
39793;BME280;26080;42.264;24.536;2023-12-28T03:24:30;100485.44;;;0.56;100.00
39793;BME280;26080;42.264;24.536;2023-12-28T03:26:55;100486.34;;;0.61;100.00
39793;BME280;26080;42.264;24.536;2023-12-28T03:29:20;100487.38;;;0.77;100.00
39793;BME280;26080;42.264;24.536;2023-12-28T03:31:46;100493.41;;;0.80;100.00
39793;BME280;26080;42.264;24.536;2023-12-28T03:34:11;100494.09;;;0.64;100.00
39793;BME280;26080;42.264;24.536;2023-12-28T03:36:37;100495.66;;;0.50;100.00
39793;BME280;26080;42.264;24.536;2023-12-28T03:39:02;100486.75;;;0.26;100.00
39793;BME280;26080;42.264;24.536;2023-12-28T03:41:29;100493.59;;;0.24;100.00
39793;BME280;26080;42.264;24.536;2023-12-28T03:43:54;100465.13;;;0.14;100.00
39793;BME280;26080;42.264;24.536;2023-12-28T03:46:20;100501.47;;;0.34;100.00
39793;BME280;26080;42.264;24.536;2023-12-28T03:48:45;100499.69;;;0.28;100.00
39793;BME280;26080;42.264;24.536;2023-12-28T03:51:15;100499.69;;;0.29;100.00
39793;BME280;26080;42.264;24.536;2023-12-28T03:53:41;100486.69;;;0.20;100.00
39793;BME280;26080;42.264;24.536;2023-12-28T03:56:07;100494.38;;;0.17;100.00
39793;BME280;26080;42.264;24.536;2023-12-28T03:58:32;100496.31;;;0.34;100.00
39793;BME280;26080;42.264;24.536;2023-12-28T04:00:58;100499.75;;;0.34;100.00
39793;BME280;26080;42.264;24.536;2023-12-28T04:03:23;100504.94;;;0.37;100.00
39793;BME280;26080;42.264;24.536;2023-12-28T04:05:48;100496.44;;;0.43;100.00
39793;BME280;26080;42.264;24.536;2023-12-28T04:08:14;100507.69;;;0.51;100.00
39793;BME280;26080;42.264;24.536;2023-12-28T04:10:39;100511.06;;;0.44;100.00
39793;BME280;26080;42.264;24.536;2023-12-28T04:13:05;100478.06;;;0.18;100.00
39793;BME280;26080;42.264;24.536;2023-12-28T04:15:30;100510.22;;;0.48;100.00
39793;BME280;26080;42.264;24.536;2023-12-28T04:17:56;100471.03;;;0.07;100.00
39793;BME280;26080;42.264;24.536;2023-12-28T04:20:22;100478.84;;;0.13;100.00
39793;BME280;26080;42.264;24.536;2023-12-28T04:22:48;100508.31;;;0.33;100.00
39793;BME280;26080;42.264;24.536;2023-12-28T04:25:13;100509.97;;;0.28;100.00
39793;BME280;26080;42.264;24.536;2023-12-28T04:27:39;100520.22;;;0.23;100.00
39793;BME280;26080;42.264;24.536;2023-12-28T04:30:05;100458.00;;;-0.04;100.00
39793;BME280;26080;42.264;24.536;2023-12-28T04:32:32;100515.06;;;0.23;100.00
39793;BME280;26080;42.264;24.536;2023-12-28T04:34:57;100516.00;;;0.28;100.00
39793;BME280;26080;42.264;24.536;2023-12-28T04:37:23;100516.91;;;0.34;100.00
39793;BME280;26080;42.264;24.536;2023-12-28T04:39:49;100516.88;;;0.31;100.00
39793;BME280;26080;42.264;24.536;2023-12-28T04:42:14;100520.16;;;0.20;100.00
39793;BME280;26080;42.264;24.536;2023-12-28T04:44:43;100519.44;;;0.27;100.00
39793;BME280;26080;42.264;24.536;2023-12-28T04:47:08;100520.22;;;0.23;100.00
39793;BME280;26080;42.264;24.536;2023-12-28T04:49:33;100520.88;;;0.09;100.00
39793;BME280;26080;42.264;24.536;2023-12-28T04:51:59;100515.00;;;0.19;100.00
39793;BME280;26080;42.264;24.536;2023-12-28T04:54:25;100511.50;;;0.14;100.00
39793;BME280;26080;42.264;24.536;2023-12-28T04:56:51;100507.13;;;0.10;100.00
39793;BME280;26080;42.264;24.536;2023-12-28T04:59:16;100515.00;;;0.19;100.00
39793;BME280;26080;42.264;24.536;2023-12-28T05:01:42;100510.75;;;0.22;100.00
39793;BME280;26080;42.264;24.536;2023-12-28T05:04:08;100519.44;;;0.27;100.00
39793;BME280;26080;42.264;24.536;2023-12-28T05:06:34;100513.31;;;0.22;100.00
39793;BME280;26080;42.264;24.536;2023-12-28T05:08:59;100518.34;;;0.13;100.00
39793;BME280;26080;42.264;24.536;2023-12-28T05:11:25;100522.59;;;0.11;100.00
39793;BME280;26080;42.264;24.536;2023-12-28T05:13:50;100536.94;;;-0.08;100.00
39793;BME280;26080;42.264;24.536;2023-12-28T05:16:16;100534.19;;;-0.18;100.00
39793;BME280;26080;42.264;24.536;2023-12-28T05:18:41;100535.16;;;-0.13;100.00
39793;BME280;26080;42.264;24.536;2023-12-28T05:21:07;100539.44;;;-0.12;100.00
39793;BME280;26080;42.264;24.536;2023-12-28T05:23:33;100537.72;;;-0.13;100.00
39793;BME280;26080;42.264;24.536;2023-12-28T05:25:58;100535.91;;;-0.17;100.00
39793;BME280;26080;42.264;24.536;2023-12-28T05:28:23;100545.25;;;-0.25;100.00
39793;BME280;26080;42.264;24.536;2023-12-28T05:30:49;100541.69;;;-0.32;100.00
39793;BME280;26080;42.264;24.536;2023-12-28T05:33:14;100537.38;;;-0.35;100.00
39793;BME280;26080;42.264;24.536;2023-12-28T05:35:40;100536.53;;;-0.32;100.00
39793;BME280;26080;42.264;24.536;2023-12-28T05:38:05;100541.84;;;-0.24;100.00
39793;BME280;26080;42.264;24.536;2023-12-28T05:40:30;100547.88;;;-0.22;100.00
39793;BME280;26080;42.264;24.536;2023-12-28T05:42:56;100536.72;;;-0.21;100.00
39793;BME280;26080;42.264;24.536;2023-12-28T05:45:21;100535.91;;;-0.17;100.00
39793;BME280;26080;42.264;24.536;2023-12-28T05:47:47;100527.28;;;-0.21;100.00
39793;BME280;26080;42.264;24.536;2023-12-28T05:50:12;100535.84;;;-0.22;100.00
39793;BME280;26080;42.264;24.536;2023-12-28T05:52:38;100532.47;;;-0.19;100.00
39793;BME280;26080;42.264;24.536;2023-12-28T05:55:04;100527.47;;;-0.10;100.00
39793;BME280;26080;42.264;24.536;2023-12-28T05:57:30;100532.06;;;0.12;100.00
39793;BME280;26080;42.264;24.536;2023-12-28T05:59:57;100526.63;;;-0.09;100.00
39793;BME280;26080;42.264;24.536;2023-12-28T06:02:22;100519.53;;;-0.22;100.00
39793;BME280;26080;42.264;24.536;2023-12-28T06:04:48;100532.06;;;-0.42;100.00
39793;BME280;26080;42.264;24.536;2023-12-28T06:07:13;100520.75;;;-0.53;100.00
39793;BME280;26080;42.264;24.536;2023-12-28T06:09:39;100518.94;;;-0.59;100.00
39793;BME280;26080;42.264;24.536;2023-12-28T06:12:05;100530.47;;;-0.36;100.00
39793;BME280;26080;42.264;24.536;2023-12-28T06:14:30;100538.06;;;-0.43;100.00
39793;BME280;26080;42.264;24.536;2023-12-28T06:16:56;100533.78;;;-0.43;100.00
39793;BME280;26080;42.264;24.536;2023-12-28T06:19:22;100535.63;;;-0.36;100.00
39793;BME280;26080;42.264;24.536;2023-12-28T06:21:48;100534.84;;;-0.32;100.00
39793;BME280;26080;42.264;24.536;2023-12-28T06:24:13;100538.22;;;-0.36;100.00
39793;BME280;26080;42.264;24.536;2023-12-28T06:26:41;100539.88;;;-0.39;100.00
39793;BME280;26080;42.264;24.536;2023-12-28T06:29:06;100539.06;;;-0.35;100.00
39793;BME280;26080;42.264;24.536;2023-12-28T06:31:32;100530.47;;;-0.36;100.00
39793;BME280;26080;42.264;24.536;2023-12-28T06:34:01;100546.34;;;-0.11;100.00
39793;BME280;26080;42.264;24.536;2023-12-28T06:36:27;100540.31;;;-0.12;100.00
39793;BME280;26080;42.264;24.536;2023-12-28T06:38:52;100536.91;;;-0.09;100.00
39793;BME280;26080;42.264;24.536;2023-12-28T06:41:17;100536.03;;;-0.11;100.00
39793;BME280;26080;42.264;24.536;2023-12-28T06:43:43;100541.22;;;-0.08;100.00
39793;BME280;26080;42.264;24.536;2023-12-28T06:46:08;100522.16;;;-0.19;100.00
39793;BME280;26080;42.264;24.536;2023-12-28T06:48:34;100543.84;;;-0.05;100.00
39793;BME280;26080;42.264;24.536;2023-12-28T06:50:59;100543.88;;;-0.02;100.00
39793;BME280;26080;42.264;24.536;2023-12-28T06:53:25;100552.84;;;0.23;100.00
39793;BME280;26080;42.264;24.536;2023-12-28T06:55:50;100559.03;;;0.36;100.00
39793;BME280;26080;42.264;24.536;2023-12-28T06:58:15;100551.34;;;0.40;100.00
39793;BME280;26080;42.264;24.536;2023-12-28T07:00:41;100559.25;;;0.51;100.00
39793;BME280;26080;42.264;24.536;2023-12-28T07:03:09;100555.94;;;0.61;100.00
39793;BME280;26080;42.264;24.536;2023-12-28T07:05:34;100545.81;;;0.76;100.00
39793;BME280;26080;42.264;24.536;2023-12-28T07:08:00;100547.66;;;0.86;100.00
39793;BME280;26080;42.264;24.536;2023-12-28T07:10:25;100549.53;;;0.98;100.00
39793;BME280;26080;42.264;24.536;2023-12-28T07:12:50;100548.84;;;1.16;100.00
39793;BME280;26080;42.264;24.536;2023-12-28T07:15:16;100545.50;;;1.25;100.00
39793;BME280;26080;42.264;24.536;2023-12-28T07:17:41;100545.66;;;1.41;100.00
39793;BME280;26080;42.264;24.536;2023-12-28T07:20:07;100557.00;;;1.59;100.00
39793;BME280;26080;42.264;24.536;2023-12-28T07:22:36;100553.69;;;1.72;100.00
39793;BME280;26080;42.264;24.536;2023-12-28T07:25:05;100556.34;;;1.80;100.00
39793;BME280;26080;42.264;24.536;2023-12-28T07:27:35;100557.25;;;1.86;100.00
39793;BME280;26080;42.264;24.536;2023-12-28T07:30:02;100525.28;;;1.72;100.00
39793;BME280;26080;42.264;24.536;2023-12-28T07:32:28;100558.22;;;2.02;100.00
39793;BME280;26080;42.264;24.536;2023-12-28T07:34:54;100567.78;;;2.14;100.00
39793;BME280;26080;42.264;24.536;2023-12-28T07:37:20;100523.78;;;2.04;100.00
39793;BME280;26080;42.264;24.536;2023-12-28T07:39:47;100552.44;;;2.33;100.00
39793;BME280;26080;42.264;24.536;2023-12-28T07:42:12;100547.28;;;2.38;100.00
39793;BME280;26080;42.264;24.536;2023-12-28T07:44:39;100553.44;;;2.63;100.00
39793;BME280;26080;42.264;24.536;2023-12-28T07:47:04;100564.66;;;2.70;100.00
39793;BME280;26080;42.264;24.536;2023-12-28T07:49:30;100530.19;;;2.71;100.00
39793;BME280;26080;42.264;24.536;2023-12-28T07:51:56;100566.50;;;2.95;100.00
39793;BME280;26080;42.264;24.536;2023-12-28T07:54:22;100542.34;;;2.91;100.00
39793;BME280;26080;42.264;24.536;2023-12-28T07:56:48;100573.50;;;3.17;100.00
39793;BME280;26080;42.264;24.536;2023-12-28T07:59:13;100544.13;;;3.09;100.00
39793;BME280;26080;42.264;24.536;2023-12-28T08:01:38;100534.63;;;3.14;100.00
39793;BME280;26080;42.264;24.536;2023-12-28T08:04:04;100570.06;;;3.40;100.00
39793;BME280;26080;42.264;24.536;2023-12-28T08:06:30;100569.25;;;3.48;100.00
39793;BME280;26080;42.264;24.536;2023-12-28T08:08:59;100539.88;;;3.37;100.00
39793;BME280;26080;42.264;24.536;2023-12-28T08:11:27;100577.91;;;3.72;100.00
39793;BME280;26080;42.264;24.536;2023-12-28T08:13:52;100574.47;;;3.85;100.00
39793;BME280;26080;42.264;24.536;2023-12-28T08:16:17;100577.03;;;3.96;100.00
39793;BME280;26080;42.264;24.536;2023-12-28T08:18:43;100571.84;;;4.11;100.00
39793;BME280;26080;42.264;24.536;2023-12-28T08:21:08;100568.38;;;4.27;100.00
39793;BME280;26080;42.264;24.536;2023-12-28T08:23:34;100565.75;;;4.35;100.00
39793;BME280;26080;42.264;24.536;2023-12-28T08:25:59;100566.63;;;4.44;100.00
39793;BME280;26080;42.264;24.536;2023-12-28T08:28:25;100561.41;;;4.57;100.00
39793;BME280;26080;42.264;24.536;2023-12-28T08:30:50;100564.81;;;4.72;100.00
39793;BME280;26080;42.264;24.536;2023-12-28T08:33:16;100561.31;;;4.78;100.00
39793;BME280;26080;42.264;24.536;2023-12-28T08:35:41;100527.59;;;4.72;100.00
39793;BME280;26080;42.264;24.536;2023-12-28T08:38:07;100558.59;;;5.04;100.00
39793;BME280;26080;42.264;24.536;2023-12-28T08:40:32;100510.22;;;4.89;100.00
39793;BME280;26080;42.264;24.536;2023-12-28T08:42:57;100552.44;;;5.25;100.00
39793;BME280;26080;42.264;24.536;2023-12-28T08:45:23;100548.94;;;5.35;100.00
39793;BME280;26080;42.264;24.536;2023-12-28T08:47:48;100529.81;;;5.42;100.00
39793;BME280;26080;42.264;24.536;2023-12-28T08:50:14;100540.09;;;5.59;100.00
39793;BME280;26080;42.264;24.536;2023-12-28T08:52:39;100540.00;;;5.70;100.00
39793;BME280;26080;42.264;24.536;2023-12-28T08:55:05;100527.78;;;5.81;100.00
39793;BME280;26080;42.264;24.536;2023-12-28T08:57:31;100532.94;;;5.91;100.00
39793;BME280;26080;42.264;24.536;2023-12-28T08:59:57;100525.09;;;5.96;100.00
39793;BME280;26080;42.264;24.536;2023-12-28T09:02:27;100523.16;;;6.15;100.00
39793;BME280;26080;42.264;24.536;2023-12-28T09:04:52;100523.88;;;6.32;100.00
39793;BME280;26080;42.264;24.536;2023-12-28T09:07:18;100515.97;;;6.41;100.00
39793;BME280;26080;42.264;24.536;2023-12-28T09:09:45;100492.69;;;6.31;100.00
39793;BME280;26080;42.264;24.536;2023-12-28T09:12:11;100518.41;;;6.58;100.00
39793;BME280;26080;42.264;24.536;2023-12-28T09:14:37;100513.91;;;6.68;100.00
39793;BME280;26080;42.264;24.536;2023-12-28T09:17:03;100483.69;;;6.59;100.00
39793;BME280;26080;42.264;24.536;2023-12-28T09:19:28;100500.66;;;6.88;100.00
39793;BME280;26080;42.264;24.536;2023-12-28T09:21:53;100489.16;;;7.04;100.00
39793;BME280;26080;42.264;24.536;2023-12-28T09:24:19;100459.72;;;6.96;100.00
39793;BME280;26080;42.264;24.536;2023-12-28T09:26:44;100466.53;;;7.06;100.00
39793;BME280;26080;42.264;24.536;2023-12-28T09:29:10;100484.44;;;7.30;100.00
39793;BME280;26080;42.264;24.536;2023-12-28T09:31:36;100469.59;;;7.34;100.00
39793;BME280;26080;42.264;24.536;2023-12-28T09:34:05;100463.31;;;7.47;100.00
39793;BME280;26080;42.264;24.536;2023-12-28T09:36:31;100454.09;;;7.77;100.00
39793;BME280;26080;42.264;24.536;2023-12-28T09:38:56;100450.56;;;7.81;100.00
39793;BME280;26080;42.264;24.536;2023-12-28T09:41:26;100419.50;;;7.69;100.00
39793;BME280;26080;42.264;24.536;2023-12-28T09:43:54;100451.16;;;7.97;100.00
39793;BME280;26080;42.264;24.536;2023-12-28T09:46:22;100436.38;;;7.96;100.00
39793;BME280;26080;42.264;24.536;2023-12-28T09:48:48;100428.31;;;8.08;100.00
39793;BME280;26080;42.264;24.536;2023-12-28T09:51:14;100429.19;;;8.09;100.00
39793;BME280;26080;42.264;24.536;2023-12-28T09:53:40;100425.56;;;8.16;100.00
39793;BME280;26080;42.264;24.536;2023-12-28T09:56:06;100416.84;;;8.17;100.00
39793;BME280;26080;42.264;24.536;2023-12-28T09:58:33;100422.81;;;8.23;100.00
39793;BME280;26080;42.264;24.536;2023-12-28T10:01:00;100411.44;;;8.26;100.00
39793;BME280;26080;42.264;24.536;2023-12-28T10:03:26;100397.38;;;8.33;100.00
39793;BME280;26080;42.264;24.536;2023-12-28T10:05:52;100403.38;;;8.40;100.00
39793;BME280;26080;42.264;24.536;2023-12-28T10:08:17;100402.28;;;8.48;100.00
39793;BME280;26080;42.264;24.536;2023-12-28T10:10:44;100397.84;;;8.53;100.00
39793;BME280;26080;42.264;24.536;2023-12-28T10:13:16;100390.63;;;8.66;100.00
39793;BME280;26080;42.264;24.536;2023-12-28T10:15:42;100388.63;;;8.77;100.00
39793;BME280;26080;42.264;24.536;2023-12-28T10:18:09;100375.38;;;8.85;98.89
39793;BME280;26080;42.264;24.536;2023-12-28T10:20:34;100367.28;;;8.96;95.90
39793;BME280;26080;42.264;24.536;2023-12-28T10:23:00;100360.97;;;9.04;94.07
39793;BME280;26080;42.264;24.536;2023-12-28T10:25:30;100314.47;;;8.83;95.14
39793;BME280;26080;42.264;24.536;2023-12-28T10:27:56;100363.25;;;9.18;95.93
39793;BME280;26080;42.264;24.536;2023-12-28T10:30:22;100351.88;;;9.20;93.75
39793;BME280;26080;42.264;24.536;2023-12-28T10:32:48;100357.63;;;9.35;91.28
39793;BME280;26080;42.264;24.536;2023-12-28T10:35:14;100361.94;;;9.36;90.60
39793;BME280;26080;42.264;24.536;2023-12-28T10:37:41;100355.81;;;9.37;92.09
39793;BME280;26080;42.264;24.536;2023-12-28T10:40:20;100349.66;;;9.39;92.52
39793;BME280;26080;42.264;24.536;2023-12-28T10:42:51;100346.09;;;9.42;93.11
39793;BME280;26080;42.264;24.536;2023-12-28T10:45:18;100337.28;;;9.46;92.35
39793;BME280;26080;42.264;24.536;2023-12-28T10:47:54;100316.50;;;9.40;92.83
39793;BME280;26080;42.264;24.536;2023-12-28T10:50:27;100336.94;;;9.60;94.22
39793;BME280;26080;42.264;24.536;2023-12-28T10:52:59;100326.41;;;9.61;94.81
39793;BME280;26080;42.264;24.536;2023-12-28T10:55:40;100300.59;;;9.49;94.66
39793;BME280;26080;42.264;24.536;2023-12-28T10:58:17;100319.44;;;9.62;94.11
39793;BME280;26080;42.264;24.536;2023-12-28T11:00:58;100297.69;;;9.60;92.49
39793;BME280;26080;42.264;24.536;2023-12-28T11:03:29;100303.59;;;9.66;92.80
39793;BME280;26080;42.264;24.536;2023-12-28T11:05:56;100300.97;;;9.66;92.31
39793;BME280;26080;42.264;24.536;2023-12-28T11:08:23;100300.69;;;9.77;92.84
39793;BME280;26080;42.264;24.536;2023-12-28T11:10:50;100279.06;;;9.70;93.18
39793;BME280;26080;42.264;24.536;2023-12-28T11:13:19;100291.59;;;9.90;93.18
39793;BME280;26080;42.264;24.536;2023-12-28T11:15:47;100294.81;;;9.98;92.47
39793;BME280;26080;42.264;24.536;2023-12-28T11:18:14;100290.28;;;10.05;91.38
39793;BME280;26080;42.264;24.536;2023-12-28T11:20:41;100283.28;;;10.05;91.27
39793;BME280;26080;42.264;24.536;2023-12-28T11:23:08;100254.81;;;9.95;91.09
39793;BME280;26080;42.264;24.536;2023-12-28T11:25:33;100275.13;;;10.16;89.60
39793;BME280;26080;42.264;24.536;2023-12-28T11:28:00;100264.97;;;10.35;86.31
39793;BME280;26080;42.264;24.536;2023-12-28T11:30:33;100258.66;;;10.42;85.07
39793;BME280;26080;42.264;24.536;2023-12-28T11:32:59;100260.44;;;10.40;86.13
39793;BME280;26080;42.264;24.536;2023-12-28T11:35:34;100253.31;;;10.45;85.77
39793;BME280;26080;42.264;24.536;2023-12-28T11:38:01;100253.22;;;10.48;88.28
39793;BME280;26080;42.264;24.536;2023-12-28T11:40:31;100244.28;;;10.54;85.38
39793;BME280;26080;42.264;24.536;2023-12-28T11:43:14;100218.63;;;10.37;86.29
39793;BME280;26080;42.264;24.536;2023-12-28T11:45:47;100245.25;;;10.51;87.30
39793;BME280;26080;42.264;24.536;2023-12-28T11:48:25;100241.66;;;10.54;87.79
39793;BME280;26080;42.264;24.536;2023-12-28T11:50:54;100237.16;;;10.59;86.01
39793;BME280;26080;42.264;24.536;2023-12-28T11:53:20;100229.28;;;10.59;87.05
39793;BME280;26080;42.264;24.536;2023-12-28T11:55:46;100233.53;;;10.63;86.94
39793;BME280;26080;42.264;24.536;2023-12-28T11:58:11;100222.94;;;10.66;87.40
39793;BME280;26080;42.264;24.536;2023-12-28T12:00:37;100195.44;;;10.53;85.30
39793;BME280;26080;42.264;24.536;2023-12-28T12:03:03;100222.59;;;10.77;85.49
39793;BME280;26080;42.264;24.536;2023-12-28T12:05:28;100219.59;;;10.87;83.97
39793;BME280;26080;42.264;24.536;2023-12-28T12:07:54;100216.72;;;10.95;82.92
39793;BME280;26080;42.264;24.536;2023-12-28T12:10:19;100215.97;;;10.91;84.38
39793;BME280;26080;42.264;24.536;2023-12-28T12:12:46;100218.41;;;10.97;84.82
39793;BME280;26080;42.264;24.536;2023-12-28T12:15:12;100217.16;;;11.08;83.10
39793;BME280;26080;42.264;24.536;2023-12-28T12:17:38;100210.38;;;11.02;83.16
39793;BME280;26080;42.264;24.536;2023-12-28T12:20:04;100212.13;;;11.02;83.19
39793;BME280;26080;42.264;24.536;2023-12-28T12:22:36;100212.81;;;11.07;83.81
39793;BME280;26080;42.264;24.536;2023-12-28T12:25:05;100212.63;;;11.13;85.03
39793;BME280;26080;42.264;24.536;2023-12-28T12:27:31;100204.75;;;11.13;84.19
39793;BME280;26080;42.264;24.536;2023-12-28T12:29:57;100197.56;;;11.18;84.26
39793;BME280;26080;42.264;24.536;2023-12-28T12:32:23;100195.19;;;11.12;84.18
39793;BME280;26080;42.264;24.536;2023-12-28T12:34:50;100192.44;;;11.15;84.18
39793;BME280;26080;42.264;24.536;2023-12-28T12:37:19;100194.22;;;11.14;84.97
39793;BME280;26080;42.264;24.536;2023-12-28T12:39:45;100189.03;;;11.13;84.44